Aeroporto :







RITROVATECI SU...

 
LOGIN :

Iscrizione | Disclaimer

   EN    FR    IT 

 









Sommario :    VFR   VFR Marginale   IFR   IFR Intensivo   IFR Molto Intensivo
Visibilità : 
Base nubi : 
>= 8 km
>= 3000ft
5 / 8 km
1000 / 3000 ft
1500m / 5 km
500 / 1000 ft
800 / 1500m
200 / 500 ft
< 800m
< 200 ft
Simboli :   Temporali  Nebbia  Neve Forte  Precipitazioni Forti  Vento > 20 kt






- Altitudine del aeroporto : 23 ft
- Codice IATA : STT


TIST - King

ULTIMO METAR :
  • 261753Z 07014G21KT 10SM FEW031 32/22 A2993 RMK AO2 SLP137 60000 T03220222 10322 20283 58024

METARs OBSOLETI :
  • 261653Z 07016G22KT 10SM SCT030 32/22 A2996 RMK AO2 PK WND 09026/1611 SLP145 T03170222
  • 261553Z 08012G20KT 10SM FEW032 FEW048 SCT065 31/22 A2998 RMK AO2 SLP153 T03060217

TAF TIST
Valido dal 26 a 18 ore il 27 a 18 ore UTC


261720Z 2618/2718 08014KT P6SM FEW030
FM262200 07009KT P6SM VCSH SCT025 SCT050
FM270400 07010KT P6SM VCSH SCT030 SCT060
FM271400 10012KT P6SM FEW025 SCT050
FIR TJZS / America del Nord



MetMap, La meteo Aeronautica in un colpo d'occhio ! - Copyright ORBIFLY Dicembre 2007 - Disclaimer

ORBIFLY MET'MAP TEAM :

Programmazione e sviluppo : Alexandra Zaïnal
Concezione : Baudouin d'Aumeries
Aiuto per la programmazione : Marc-Olivier Méhu
Supporto tecnico e logistico : Manuel Goepfert
Aiuto per la traduzione : Arnaldo La Scala

Contatto : metmap@orbifly.com




FONTI E CREDITI :

   NOAA